sensor_id;sensor_type;location;lat;lon;timestamp;pressure;altitude;pressure_sealevel;temperature;humidity
54920;BME280;63804;53.120;8.764;2022-11-20T00:00:48;101404.50;;;3.78;48.14
54920;BME280;63804;53.120;8.764;2022-11-20T00:03:14;101408.03;;;3.79;47.85
54920;BME280;63804;53.120;8.764;2022-11-20T00:05:40;101401.06;;;3.73;48.29
54920;BME280;63804;53.120;8.764;2022-11-20T00:08:06;101398.94;;;3.64;48.50
54920;BME280;63804;53.120;8.764;2022-11-20T00:10:32;101404.38;;;3.59;48.47
54920;BME280;63804;53.120;8.764;2022-11-20T00:12:58;101400.78;;;3.74;48.14
54920;BME280;63804;53.120;8.764;2022-11-20T00:15:24;101395.34;;;3.79;48.01
54920;BME280;63804;53.120;8.764;2022-11-20T00:17:50;101390.22;;;3.78;48.18
54920;BME280;63804;53.120;8.764;2022-11-20T00:20:16;101402.91;;;3.77;48.05
54920;BME280;63804;53.120;8.764;2022-11-20T00:22:41;101393.97;;;3.82;47.94
54920;BME280;63804;53.120;8.764;2022-11-20T00:25:07;101392.78;;;3.59;48.68
54920;BME280;63804;53.120;8.764;2022-11-20T00:27:33;101398.34;;;3.73;48.54
54920;BME280;63804;53.120;8.764;2022-11-20T00:29:58;101389.97;;;3.74;48.40
54920;BME280;63804;53.120;8.764;2022-11-20T00:32:24;101396.97;;;3.75;48.55
54920;BME280;63804;53.120;8.764;2022-11-20T00:34:49;101391.19;;;3.52;49.12
54920;BME280;63804;53.120;8.764;2022-11-20T00:37:15;101403.31;;;3.55;49.23
54920;BME280;63804;53.120;8.764;2022-11-20T00:39:41;101395.75;;;3.57;49.20
54920;BME280;63804;53.120;8.764;2022-11-20T00:42:07;101395.25;;;3.45;49.53
54920;BME280;63804;53.120;8.764;2022-11-20T00:44:32;101391.25;;;3.37;49.63
54920;BME280;63804;53.120;8.764;2022-11-20T00:46:58;101383.41;;;3.35;49.94
54920;BME280;63804;53.120;8.764;2022-11-20T00:49:24;101393.38;;;3.50;49.44
54920;BME280;63804;53.120;8.764;2022-11-20T00:51:49;101385.28;;;3.45;49.54
54920;BME280;63804;53.120;8.764;2022-11-20T00:54:15;101384.19;;;3.46;49.71
54920;BME280;63804;53.120;8.764;2022-11-20T00:56:41;101387.41;;;3.48;49.70
54920;BME280;63804;53.120;8.764;2022-11-20T00:59:08;101379.00;;;3.55;49.56
54920;BME280;63804;53.120;8.764;2022-11-20T01:01:35;101381.41;;;3.62;49.28
54920;BME280;63804;53.120;8.764;2022-11-20T01:04:01;101380.13;;;3.54;49.64
54920;BME280;63804;53.120;8.764;2022-11-20T01:06:30;101381.16;;;3.58;49.45
54920;BME280;63804;53.120;8.764;2022-11-20T01:08:58;101378.97;;;3.60;49.44
54920;BME280;63804;53.120;8.764;2022-11-20T01:11:29;101381.47;;;3.51;49.37
54920;BME280;63804;53.120;8.764;2022-11-20T01:13:57;101385.81;;;3.47;49.53
54920;BME280;63804;53.120;8.764;2022-11-20T01:16:31;101383.88;;;3.53;49.50
54920;BME280;63804;53.120;8.764;2022-11-20T01:18:59;101376.88;;;3.52;49.34
54920;BME280;63804;53.120;8.764;2022-11-20T01:21:36;101371.50;;;3.42;49.17
54920;BME280;63804;53.120;8.764;2022-11-20T01:24:04;101370.44;;;3.38;49.07
54920;BME280;63804;53.120;8.764;2022-11-20T01:26:32;101376.38;;;3.40;49.06
54920;BME280;63804;53.120;8.764;2022-11-20T01:28:59;101368.00;;;3.46;48.83
54920;BME280;63804;53.120;8.764;2022-11-20T01:31:30;101360.69;;;3.52;48.78
54920;BME280;63804;53.120;8.764;2022-11-20T01:33:59;101358.69;;;3.68;48.34
54920;BME280;63804;53.120;8.764;2022-11-20T01:36:28;101356.25;;;3.66;48.38
54920;BME280;63804;53.120;8.764;2022-11-20T01:38:57;101355.81;;;3.54;48.72
54920;BME280;63804;53.120;8.764;2022-11-20T01:41:24;101354.72;;;3.55;48.55
54920;BME280;63804;53.120;8.764;2022-11-20T01:44:12;101348.44;;;3.65;48.20
54920;BME280;63804;53.120;8.764;2022-11-20T01:46:45;101353.03;;;3.64;47.92
54920;BME280;63804;53.120;8.764;2022-11-20T01:49:19;101352.28;;;3.53;48.42
54920;BME280;63804;53.120;8.764;2022-11-20T01:51:53;101349.78;;;3.67;47.99
54920;BME280;63804;53.120;8.764;2022-11-20T01:54:43;101336.94;;;3.54;48.30
54920;BME280;63804;53.120;8.764;2022-11-20T01:57:13;101341.19;;;3.60;48.17
54920;BME280;63804;53.120;8.764;2022-11-20T01:59:44;101338.28;;;3.51;48.29
54920;BME280;63804;53.120;8.764;2022-11-20T02:02:10;101339.66;;;3.49;48.21
54920;BME280;63804;53.120;8.764;2022-11-20T02:04:36;101328.84;;;3.49;48.50
54920;BME280;63804;53.120;8.764;2022-11-20T02:07:03;101334.22;;;3.54;48.33
54920;BME280;63804;53.120;8.764;2022-11-20T02:09:30;101327.72;;;3.55;48.29
54920;BME280;63804;53.120;8.764;2022-11-20T02:11:56;101322.56;;;3.64;48.05
54920;BME280;63804;53.120;8.764;2022-11-20T02:14:30;101318.06;;;3.49;48.29
54920;BME280;63804;53.120;8.764;2022-11-20T02:17:02;101317.44;;;3.62;47.82
54920;BME280;63804;53.120;8.764;2022-11-20T02:19:31;101314.66;;;3.73;47.70
54920;BME280;63804;53.120;8.764;2022-11-20T02:22:14;101307.66;;;3.66;47.65
54920;BME280;63804;53.120;8.764;2022-11-20T02:24:43;101312.03;;;3.62;47.69
54920;BME280;63804;53.120;8.764;2022-11-20T02:27:12;101314.81;;;3.47;48.04
54920;BME280;63804;53.120;8.764;2022-11-20T02:29:53;101309.41;;;3.52;47.77
54920;BME280;63804;53.120;8.764;2022-11-20T02:32:31;101316.44;;;3.48;47.97
54920;BME280;63804;53.120;8.764;2022-11-20T02:34:57;101314.19;;;3.60;47.56
54920;BME280;63804;53.120;8.764;2022-11-20T02:37:32;101321.22;;;3.61;47.63
54920;BME280;63804;53.120;8.764;2022-11-20T02:39:58;101310.16;;;3.58;47.59
54920;BME280;63804;53.120;8.764;2022-11-20T02:42:24;101312.03;;;3.62;47.60
54920;BME280;63804;53.120;8.764;2022-11-20T02:44:49;101309.84;;;3.64;47.52
54920;BME280;63804;53.120;8.764;2022-11-20T02:47:15;101300.16;;;3.58;47.57
54920;BME280;63804;53.120;8.764;2022-11-20T02:49:41;101303.38;;;3.60;47.58
54920;BME280;63804;53.120;8.764;2022-11-20T02:52:06;101296.41;;;3.59;47.88
54920;BME280;63804;53.120;8.764;2022-11-20T02:54:32;101310.59;;;3.70;47.56
54920;BME280;63804;53.120;8.764;2022-11-20T02:56:58;101305.16;;;3.75;47.21
54920;BME280;63804;53.120;8.764;2022-11-20T02:59:23;101301.66;;;3.75;47.54
54920;BME280;63804;53.120;8.764;2022-11-20T03:01:49;101307.66;;;3.66;47.51
54920;BME280;63804;53.120;8.764;2022-11-20T03:04:15;101300.44;;;3.57;47.75
54920;BME280;63804;53.120;8.764;2022-11-20T03:06:41;101297.47;;;3.58;47.30
54920;BME280;63804;53.120;8.764;2022-11-20T03:09:06;101300.91;;;3.69;47.34
54920;BME280;63804;53.120;8.764;2022-11-20T03:11:32;101290.19;;;3.59;47.41
54920;BME280;63804;53.120;8.764;2022-11-20T03:14:02;101287.19;;;3.60;47.40
54920;BME280;63804;53.120;8.764;2022-11-20T03:16:28;101275.84;;;3.63;47.43
54920;BME280;63804;53.120;8.764;2022-11-20T03:18:54;101285.59;;;3.59;47.50
54920;BME280;63804;53.120;8.764;2022-11-20T03:21:19;101280.88;;;3.75;47.14
54920;BME280;63804;53.120;8.764;2022-11-20T03:23:45;101277.31;;;3.80;47.19
54920;BME280;63804;53.120;8.764;2022-11-20T03:26:13;101269.69;;;3.87;47.08
54920;BME280;63804;53.120;8.764;2022-11-20T03:28:40;101263.25;;;3.83;47.09
54920;BME280;63804;53.120;8.764;2022-11-20T03:31:11;101259.53;;;3.74;47.38
54920;BME280;63804;53.120;8.764;2022-11-20T03:33:37;101267.63;;;3.79;47.32
54920;BME280;63804;53.120;8.764;2022-11-20T03:36:05;101266.00;;;3.78;47.19
54920;BME280;63804;53.120;8.764;2022-11-20T03:38:31;101263.53;;;3.81;47.24
54920;BME280;63804;53.120;8.764;2022-11-20T03:41:00;101265.44;;;3.81;47.31
54920;BME280;63804;53.120;8.764;2022-11-20T03:43:26;101260.28;;;3.84;47.27
54920;BME280;63804;53.120;8.764;2022-11-20T03:45:52;101259.72;;;3.87;47.15
54920;BME280;63804;53.120;8.764;2022-11-20T03:48:17;101255.00;;;3.98;47.00
54920;BME280;63804;53.120;8.764;2022-11-20T03:50:49;101251.78;;;3.96;47.13
54920;BME280;63804;53.120;8.764;2022-11-20T03:53:16;101241.38;;;3.84;47.26
54920;BME280;63804;53.120;8.764;2022-11-20T03:55:42;101244.13;;;3.79;47.40
54920;BME280;63804;53.120;8.764;2022-11-20T03:58:08;101240.03;;;3.82;47.33
54920;BME280;63804;53.120;8.764;2022-11-20T04:00:34;101236.75;;;3.85;47.47
54920;BME280;63804;53.120;8.764;2022-11-20T04:03:01;101245.97;;;3.84;47.37
54920;BME280;63804;53.120;8.764;2022-11-20T04:05:27;101247.63;;;3.80;47.30
54920;BME280;63804;53.120;8.764;2022-11-20T04:07:53;101239.97;;;3.87;47.20
54920;BME280;63804;53.120;8.764;2022-11-20T04:10:19;101244.88;;;3.85;47.28
54920;BME280;63804;53.120;8.764;2022-11-20T04:12:45;101248.69;;;3.84;47.35
54920;BME280;63804;53.120;8.764;2022-11-20T04:15:10;101234.56;;;3.87;47.43
54920;BME280;63804;53.120;8.764;2022-11-20T04:17:36;101240.91;;;3.77;47.76
54920;BME280;63804;53.120;8.764;2022-11-20T04:20:02;101230.34;;;3.81;47.68
54920;BME280;63804;53.120;8.764;2022-11-20T04:22:28;101232.41;;;3.89;47.50
54920;BME280;63804;53.120;8.764;2022-11-20T04:24:53;101214.44;;;4.03;47.28
54920;BME280;63804;53.120;8.764;2022-11-20T04:27:19;101218.59;;;3.96;47.33
54920;BME280;63804;53.120;8.764;2022-11-20T04:29:45;101220.00;;;3.88;47.40
54920;BME280;63804;53.120;8.764;2022-11-20T04:32:10;101240.19;;;3.96;46.83
54920;BME280;63804;53.120;8.764;2022-11-20T04:34:36;101240.53;;;3.89;47.17
54920;BME280;63804;53.120;8.764;2022-11-20T04:37:02;101230.56;;;3.84;47.02
54920;BME280;63804;53.120;8.764;2022-11-20T04:39:27;101228.75;;;3.75;47.34
54920;BME280;63804;53.120;8.764;2022-11-20T04:41:53;101230.91;;;3.78;46.93
54920;BME280;63804;53.120;8.764;2022-11-20T04:44:38;101238.78;;;3.74;47.01
54920;BME280;63804;53.120;8.764;2022-11-20T04:47:04;101233.94;;;3.71;47.11
54920;BME280;63804;53.120;8.764;2022-11-20T04:49:30;101227.03;;;3.89;46.67
54920;BME280;63804;53.120;8.764;2022-11-20T04:51:57;101226.69;;;3.96;46.44
54920;BME280;63804;53.120;8.764;2022-11-20T04:54:23;101223.50;;;3.88;46.38
54920;BME280;63804;53.120;8.764;2022-11-20T04:56:49;101219.53;;;3.81;46.41
54920;BME280;63804;53.120;8.764;2022-11-20T04:59:15;101229.19;;;3.87;46.49
54920;BME280;63804;53.120;8.764;2022-11-20T05:01:41;101229.81;;;3.79;46.71
54920;BME280;63804;53.120;8.764;2022-11-20T05:04:07;101227.63;;;3.81;46.60
54920;BME280;63804;53.120;8.764;2022-11-20T05:06:33;101226.75;;;3.90;46.50
54920;BME280;63804;53.120;8.764;2022-11-20T05:08:59;101223.78;;;3.87;46.61
54920;BME280;63804;53.120;8.764;2022-11-20T05:11:26;101221.41;;;3.80;46.73
54920;BME280;63804;53.120;8.764;2022-11-20T05:13:55;101224.09;;;3.80;46.82
54920;BME280;63804;53.120;8.764;2022-11-20T05:16:22;101215.72;;;3.82;46.76
54920;BME280;63804;53.120;8.764;2022-11-20T05:18:50;101219.25;;;3.82;46.57
54920;BME280;63804;53.120;8.764;2022-11-20T05:21:16;101218.72;;;3.80;46.64
54920;BME280;63804;53.120;8.764;2022-11-20T05:23:43;101214.66;;;3.83;46.54
54920;BME280;63804;53.120;8.764;2022-11-20T05:26:14;101216.50;;;3.87;46.56
54920;BME280;63804;53.120;8.764;2022-11-20T05:28:40;101208.91;;;3.89;46.68
54920;BME280;63804;53.120;8.764;2022-11-20T05:31:07;101205.81;;;4.01;46.54
54920;BME280;63804;53.120;8.764;2022-11-20T05:33:34;101200.75;;;3.95;46.60
54920;BME280;63804;53.120;8.764;2022-11-20T05:36:01;101204.88;;;3.87;46.62
54920;BME280;63804;53.120;8.764;2022-11-20T05:38:27;101211.66;;;3.84;46.53
54920;BME280;63804;53.120;8.764;2022-11-20T05:40:52;101205.69;;;3.87;46.66
54920;BME280;63804;53.120;8.764;2022-11-20T05:43:18;101208.69;;;3.86;46.72
54920;BME280;63804;53.120;8.764;2022-11-20T05:45:52;101206.09;;;3.76;47.02
54920;BME280;63804;53.120;8.764;2022-11-20T05:48:18;101200.16;;;3.74;46.99
54920;BME280;63804;53.120;8.764;2022-11-20T05:50:43;101204.75;;;3.73;47.02
54920;BME280;63804;53.120;8.764;2022-11-20T05:53:09;101203.22;;;3.91;46.66
54920;BME280;63804;53.120;8.764;2022-11-20T05:55:35;101195.19;;;3.86;46.95
54920;BME280;63804;53.120;8.764;2022-11-20T05:58:00;101203.41;;;4.00;46.82
54920;BME280;63804;53.120;8.764;2022-11-20T06:00:26;101204.63;;;3.83;46.90
54920;BME280;63804;53.120;8.764;2022-11-20T06:02:52;101198.44;;;3.83;47.05
54920;BME280;63804;53.120;8.764;2022-11-20T06:05:17;101197.94;;;3.81;47.25
54920;BME280;63804;53.120;8.764;2022-11-20T06:07:43;101184.31;;;3.91;46.99
54920;BME280;63804;53.120;8.764;2022-11-20T06:10:09;101182.94;;;3.94;47.12
54920;BME280;63804;53.120;8.764;2022-11-20T06:12:35;101179.19;;;3.89;47.29
54920;BME280;63804;53.120;8.764;2022-11-20T06:15:01;101176.84;;;3.83;47.19
54920;BME280;63804;53.120;8.764;2022-11-20T06:17:26;101177.41;;;3.80;47.33
54920;BME280;63804;53.120;8.764;2022-11-20T06:19:52;101168.00;;;3.77;47.57
54920;BME280;63804;53.120;8.764;2022-11-20T06:22:18;101172.56;;;3.77;47.30
54920;BME280;63804;53.120;8.764;2022-11-20T06:24:43;101187.25;;;3.70;47.64
54920;BME280;63804;53.120;8.764;2022-11-20T06:27:09;101170.75;;;3.72;47.49
54920;BME280;63804;53.120;8.764;2022-11-20T06:29:34;101171.03;;;3.70;47.54
54920;BME280;63804;53.120;8.764;2022-11-20T06:32:00;101176.84;;;3.83;47.09
54920;BME280;63804;53.120;8.764;2022-11-20T06:34:26;101175.22;;;3.82;47.31
54920;BME280;63804;53.120;8.764;2022-11-20T06:36:52;101179.53;;;3.83;47.19
54920;BME280;63804;53.120;8.764;2022-11-20T06:39:18;101186.03;;;3.82;47.41
54920;BME280;63804;53.120;8.764;2022-11-20T06:41:43;101180.63;;;3.82;47.38
54920;BME280;63804;53.120;8.764;2022-11-20T06:44:09;101173.63;;;3.81;47.22
54920;BME280;63804;53.120;8.764;2022-11-20T06:46:34;101181.69;;;3.86;47.06
54920;BME280;63804;53.120;8.764;2022-11-20T06:49:00;101172.34;;;3.73;47.29
54920;BME280;63804;53.120;8.764;2022-11-20T06:51:26;101170.75;;;3.72;47.27
54920;BME280;63804;53.120;8.764;2022-11-20T06:53:52;101174.88;;;3.64;47.35
54920;BME280;63804;53.120;8.764;2022-11-20T06:56:18;101168.56;;;3.74;47.02
54920;BME280;63804;53.120;8.764;2022-11-20T06:58:44;101155.91;;;3.69;47.32
54920;BME280;63804;53.120;8.764;2022-11-20T07:01:12;101147.06;;;3.64;47.21
54920;BME280;63804;53.120;8.764;2022-11-20T07:03:38;101151.38;;;3.65;47.13
54920;BME280;63804;53.120;8.764;2022-11-20T07:06:04;101148.91;;;3.68;46.99
54920;BME280;63804;53.120;8.764;2022-11-20T07:08:31;101165.44;;;3.62;47.11
54920;BME280;63804;53.120;8.764;2022-11-20T07:10:58;101171.66;;;3.62;47.12
54920;BME280;63804;53.120;8.764;2022-11-20T07:13:25;101168.84;;;3.73;46.82
54920;BME280;63804;53.120;8.764;2022-11-20T07:15:51;101177.97;;;3.77;46.74
54920;BME280;63804;53.120;8.764;2022-11-20T07:18:17;101174.47;;;3.76;46.69
54920;BME280;63804;53.120;8.764;2022-11-20T07:20:42;101183.16;;;3.73;46.46
54920;BME280;63804;53.120;8.764;2022-11-20T07:23:08;101175.38;;;3.66;46.93
54920;BME280;63804;53.120;8.764;2022-11-20T07:25:34;101170.25;;;3.65;46.91
54920;BME280;63804;53.120;8.764;2022-11-20T07:28:00;101177.34;;;3.61;47.20
54920;BME280;63804;53.120;8.764;2022-11-20T07:30:29;101182.22;;;3.59;46.80
54920;BME280;63804;53.120;8.764;2022-11-20T07:32:56;101169.53;;;3.59;46.99
54920;BME280;63804;53.120;8.764;2022-11-20T07:35:23;101171.88;;;3.66;46.88
54920;BME280;63804;53.120;8.764;2022-11-20T07:37:49;101171.13;;;3.60;46.78
54920;BME280;63804;53.120;8.764;2022-11-20T07:40:16;101177.28;;;3.66;46.50
54920;BME280;63804;53.120;8.764;2022-11-20T07:42:49;101168.75;;;3.53;46.93
54920;BME280;63804;53.120;8.764;2022-11-20T07:45:16;101170.59;;;3.58;46.80
54920;BME280;63804;53.120;8.764;2022-11-20T07:47:41;101164.91;;;3.60;46.66
54920;BME280;63804;53.120;8.764;2022-11-20T07:50:07;101173.25;;;3.63;46.54
54920;BME280;63804;53.120;8.764;2022-11-20T07:52:33;101168.56;;;3.74;46.27
54920;BME280;63804;53.120;8.764;2022-11-20T07:54:59;101169.94;;;3.71;46.47
54920;BME280;63804;53.120;8.764;2022-11-20T07:57:25;101162.94;;;3.70;46.37
54920;BME280;63804;53.120;8.764;2022-11-20T07:59:50;101166.72;;;3.69;46.36
54920;BME280;63804;53.120;8.764;2022-11-20T08:02:16;101160.28;;;3.65;46.43
54920;BME280;63804;53.120;8.764;2022-11-20T08:04:42;101166.91;;;3.49;46.54
54920;BME280;63804;53.120;8.764;2022-11-20T08:07:07;101173.91;;;3.50;46.57
54920;BME280;63804;53.120;8.764;2022-11-20T08:09:33;101174.41;;;3.57;46.69
54920;BME280;63804;53.120;8.764;2022-11-20T08:11:58;101182.91;;;3.69;46.13
54920;BME280;63804;53.120;8.764;2022-11-20T08:14:49;101184.88;;;3.64;46.23
54920;BME280;63804;53.120;8.764;2022-11-20T08:17:15;101185.91;;;3.68;46.35
54920;BME280;63804;53.120;8.764;2022-11-20T08:19:40;101179.81;;;3.81;46.15
54920;BME280;63804;53.120;8.764;2022-11-20T08:22:06;101178.13;;;3.90;45.83
54920;BME280;63804;53.120;8.764;2022-11-20T08:24:32;101174.31;;;3.92;45.81
54920;BME280;63804;53.120;8.764;2022-11-20T08:26:58;101172.38;;;3.97;45.78
54920;BME280;63804;53.120;8.764;2022-11-20T08:29:26;101169.78;;;4.11;45.56
54920;BME280;63804;53.120;8.764;2022-11-20T08:31:51;101180.59;;;4.11;45.69
54920;BME280;63804;53.120;8.764;2022-11-20T08:34:17;101174.44;;;4.05;45.68
54920;BME280;63804;53.120;8.764;2022-11-20T08:36:43;101184.91;;;4.12;45.55
54920;BME280;63804;53.120;8.764;2022-11-20T08:39:11;101182.00;;;4.03;45.70
54920;BME280;63804;53.120;8.764;2022-11-20T08:41:37;101181.06;;;3.94;45.73
54920;BME280;63804;53.120;8.764;2022-11-20T08:44:04;101191.34;;;3.92;45.68
54920;BME280;63804;53.120;8.764;2022-11-20T08:46:35;101187.19;;;4.00;45.46
54920;BME280;63804;53.120;8.764;2022-11-20T08:49:08;101182.34;;;3.97;45.60
54920;BME280;63804;53.120;8.764;2022-11-20T08:51:38;101181.00;;;3.99;45.53
54920;BME280;63804;53.120;8.764;2022-11-20T08:54:04;101181.72;;;4.05;45.31
54920;BME280;63804;53.120;8.764;2022-11-20T08:56:30;101179.59;;;4.02;45.47
54920;BME280;63804;53.120;8.764;2022-11-20T08:58:56;101186.28;;;4.09;45.29
54920;BME280;63804;53.120;8.764;2022-11-20T09:01:23;101182.56;;;4.05;45.29
54920;BME280;63804;53.120;8.764;2022-11-20T09:03:49;101182.25;;;4.07;45.14
54920;BME280;63804;53.120;8.764;2022-11-20T09:06:15;101181.00;;;3.99;45.33
54920;BME280;63804;53.120;8.764;2022-11-20T09:08:41;101184.94;;;4.07;45.40
54920;BME280;63804;53.120;8.764;2022-11-20T09:11:08;101188.81;;;4.01;45.48
54920;BME280;63804;53.120;8.764;2022-11-20T09:13:35;101188.69;;;4.11;45.31
54920;BME280;63804;53.120;8.764;2022-11-20T09:16:06;101189.25;;;4.08;45.55
54920;BME280;63804;53.120;8.764;2022-11-20T09:18:33;101187.91;;;4.11;45.41
54920;BME280;63804;53.120;8.764;2022-11-20T09:21:03;101194.16;;;4.06;45.53
54920;BME280;63804;53.120;8.764;2022-11-20T09:23:35;101191.63;;;4.15;45.47
54920;BME280;63804;53.120;8.764;2022-11-20T09:26:12;101185.72;;;4.13;45.47
54920;BME280;63804;53.120;8.764;2022-11-20T09:28:39;101191.00;;;3.99;45.84
54920;BME280;63804;53.120;8.764;2022-11-20T09:31:11;101189.25;;;4.08;45.81
54920;BME280;63804;53.120;8.764;2022-11-20T09:33:40;101180.88;;;4.09;45.66
54920;BME280;63804;53.120;8.764;2022-11-20T09:36:06;101181.38;;;4.12;45.61
54920;BME280;63804;53.120;8.764;2022-11-20T09:38:32;101186.50;;;4.13;45.64
54920;BME280;63804;53.120;8.764;2022-11-20T09:41:03;101184.66;;;4.08;45.70
54920;BME280;63804;53.120;8.764;2022-11-20T09:43:52;101181.78;;;4.00;45.93
54920;BME280;63804;53.120;8.764;2022-11-20T09:46:26;101180.66;;;4.06;45.98
54920;BME280;63804;53.120;8.764;2022-11-20T09:49:01;101182.00;;;4.03;46.17
54920;BME280;63804;53.120;8.764;2022-11-20T09:51:46;101180.44;;;4.02;46.30
54920;BME280;63804;53.120;8.764;2022-11-20T09:54:20;101188.25;;;4.04;46.13
54920;BME280;63804;53.120;8.764;2022-11-20T09:56:50;101186.78;;;3.87;46.67
54920;BME280;63804;53.120;8.764;2022-11-20T09:59:41;101186.63;;;3.74;46.98
54920;BME280;63804;53.120;8.764;2022-11-20T10:02:27;101172.06;;;3.75;47.22
54920;BME280;63804;53.120;8.764;2022-11-20T10:05:04;101174.47;;;3.76;47.28
54920;BME280;63804;53.120;8.764;2022-11-20T10:07:38;101171.50;;;3.78;47.41
54920;BME280;63804;53.120;8.764;2022-11-20T10:10:15;101167.66;;;3.84;47.49
54920;BME280;63804;53.120;8.764;2022-11-20T10:15:33;101169.03;;;3.81;47.50
54920;BME280;63804;53.120;8.764;2022-11-20T10:21:08;101169.59;;;3.78;48.19
54920;BME280;63804;53.120;8.764;2022-11-20T10:29:13;101160.59;;;3.88;47.79
54920;BME280;63804;53.120;8.764;2022-11-20T10:31:52;101160.63;;;3.83;47.85
54920;BME280;63804;53.120;8.764;2022-11-20T10:34:27;101162.72;;;3.91;47.77
54920;BME280;63804;53.120;8.764;2022-11-20T10:36:59;101159.50;;;3.89;47.66
54920;BME280;63804;53.120;8.764;2022-11-20T10:42:16;101146.75;;;3.70;48.15
54920;BME280;63804;53.120;8.764;2022-11-20T10:44:53;101154.78;;;3.76;48.13
54920;BME280;63804;53.120;8.764;2022-11-20T10:47:27;101156.94;;;3.74;48.03
54920;BME280;63804;53.120;8.764;2022-11-20T10:49:57;101144.94;;;3.85;47.83
54920;BME280;63804;53.120;8.764;2022-11-20T10:58:20;101147.03;;;3.93;47.88
54920;BME280;63804;53.120;8.764;2022-11-20T11:00:48;101144.53;;;3.97;47.67
54920;BME280;63804;53.120;8.764;2022-11-20T11:03:23;101141.16;;;4.10;47.69
54920;BME280;63804;53.120;8.764;2022-11-20T11:05:56;101135.00;;;4.04;47.46
54920;BME280;63804;53.120;8.764;2022-11-20T11:08:24;101138.78;;;4.03;47.84
54920;BME280;63804;53.120;8.764;2022-11-20T11:10:57;101134.56;;;3.97;47.34
54920;BME280;63804;53.120;8.764;2022-11-20T11:15:50;101132.38;;;3.99;47.42
54920;BME280;63804;53.120;8.764;2022-11-20T11:18:30;101134.56;;;3.97;47.52
54920;BME280;63804;53.120;8.764;2022-11-20T11:20:59;101136.66;;;4.00;47.48
54920;BME280;63804;53.120;8.764;2022-11-20T11:25:59;101120.06;;;4.12;47.23
54920;BME280;63804;53.120;8.764;2022-11-20T11:28:25;101123.16;;;4.24;47.06
54920;BME280;63804;53.120;8.764;2022-11-20T11:30:53;101122.94;;;4.21;47.01
54920;BME280;63804;53.120;8.764;2022-11-20T11:33:33;101118.16;;;4.13;47.10
54920;BME280;63804;53.120;8.764;2022-11-20T11:36:00;101116.25;;;4.13;47.00
54920;BME280;63804;53.120;8.764;2022-11-20T11:38:42;101115.25;;;4.09;46.80
54920;BME280;63804;53.120;8.764;2022-11-20T11:41:15;101112.75;;;4.13;46.43
54920;BME280;63804;53.120;8.764;2022-11-20T11:43:52;101108.66;;;4.15;46.58
54920;BME280;63804;53.120;8.764;2022-11-20T11:46:38;101114.09;;;4.34;46.24
54920;BME280;63804;53.120;8.764;2022-11-20T11:54:24;101110.97;;;4.46;45.46
54920;BME280;63804;53.120;8.764;2022-11-20T11:56:51;101117.81;;;4.38;45.42
54920;BME280;63804;53.120;8.764;2022-11-20T11:59:25;101102.84;;;4.46;45.32
54920;BME280;63804;53.120;8.764;2022-11-20T12:01:56;101111.69;;;4.52;45.15
54920;BME280;63804;53.120;8.764;2022-11-20T12:07:52;101117.16;;;4.46;44.15
54920;BME280;63804;53.120;8.764;2022-11-20T12:10:23;101106.06;;;4.48;44.73
54920;BME280;63804;53.120;8.764;2022-11-20T12:13:02;101106.06;;;4.48;44.72
54920;BME280;63804;53.120;8.764;2022-11-20T12:15:34;101111.75;;;4.46;44.68
54920;BME280;63804;53.120;8.764;2022-11-20T12:18:00;101102.34;;;4.44;44.70
54920;BME280;63804;53.120;8.764;2022-11-20T12:20:30;101109.50;;;4.54;44.66
54920;BME280;63804;53.120;8.764;2022-11-20T12:23:24;101110.69;;;4.48;43.93
54920;BME280;63804;53.120;8.764;2022-11-20T12:25:56;101099.94;;;4.42;44.92
54920;BME280;63804;53.120;8.764;2022-11-20T12:32:06;101097.50;;;4.22;45.71
54920;BME280;63804;53.120;8.764;2022-11-20T12:37:48;101082.19;;;4.17;46.10
54920;BME280;63804;53.120;8.764;2022-11-20T12:40:28;101086.25;;;4.15;46.29
54920;BME280;63804;53.120;8.764;2022-11-20T12:43:11;101092.84;;;4.27;46.01
54920;BME280;63804;53.120;8.764;2022-11-20T12:51:55;101090.00;;;4.19;46.12
54920;BME280;63804;53.120;8.764;2022-11-20T12:54:42;101091.72;;;4.28;46.00
54920;BME280;63804;53.120;8.764;2022-11-20T13:08:38;101089.38;;;4.22;45.44
54920;BME280;63804;53.120;8.764;2022-11-20T13:11:58;101083.63;;;4.28;45.40
54920;BME280;63804;53.120;8.764;2022-11-20T13:19:28;101065.81;;;4.27;45.73
54920;BME280;63804;53.120;8.764;2022-11-20T13:21:55;101070.84;;;4.15;45.96
54920;BME280;63804;53.120;8.764;2022-11-20T13:29:44;101061.00;;;4.05;46.54
54920;BME280;63804;53.120;8.764;2022-11-20T13:32:15;101052.22;;;4.14;46.41
54920;BME280;63804;53.120;8.764;2022-11-20T13:35:11;101062.22;;;4.13;46.05
54920;BME280;63804;53.120;8.764;2022-11-20T13:37:37;101055.22;;;4.12;46.14
54920;BME280;63804;53.120;8.764;2022-11-20T13:45:32;101054.81;;;3.81;46.78
54920;BME280;63804;53.120;8.764;2022-11-20T13:48:03;101050.84;;;3.97;46.44
54920;BME280;63804;53.120;8.764;2022-11-20T13:53:04;101059.50;;;3.94;46.40
54920;BME280;63804;53.120;8.764;2022-11-20T13:56:00;101049.28;;;3.91;46.33
54920;BME280;63804;53.120;8.764;2022-11-20T13:59:33;101042.59;;;4.07;46.21
54920;BME280;63804;53.120;8.764;2022-11-20T14:01:30;101040.31;;;4.15;46.17
54920;BME280;63804;53.120;8.764;2022-11-20T14:04:08;101035.28;;;4.27;45.79
54920;BME280;63804;53.120;8.764;2022-11-20T14:06:43;101027.13;;;4.32;45.57
54920;BME280;63804;53.120;8.764;2022-11-20T14:09:30;101025.66;;;4.21;45.73
54920;BME280;63804;53.120;8.764;2022-11-20T14:11:57;101028.28;;;4.26;45.66
54920;BME280;63804;53.120;8.764;2022-11-20T14:14:25;101026.09;;;4.28;45.72
54920;BME280;63804;53.120;8.764;2022-11-20T14:17:23;101015.56;;;4.26;45.31
54920;BME280;63804;53.120;8.764;2022-11-20T14:19:51;101016.69;;;4.25;45.64
54920;BME280;63804;53.120;8.764;2022-11-20T14:22:23;101017.75;;;4.24;45.58
54920;BME280;63804;53.120;8.764;2022-11-20T14:27:43;101013.97;;;4.06;45.57
54920;BME280;63804;53.120;8.764;2022-11-20T14:30:15;101012.41;;;4.00;45.77